Time;durP1;ratioP1;P1;durP2;ratioP2;P2;SDS_P1;SDS_P2;PMS_P1;PMS_P2;Temp;Humidity;BMP_temperature;BMP_pressure;BME280_temperature;BME280_humidity;BME280_pressure;Samples;Min_cycle;Max_cycle;Signal;HPM_P1;HPM_P2
2022/05/07 00:49:51;;;;;;;;;;;15.50;96.30;15.70;99885.00;;;;429028;22;84139;-93
2022/05/07 00:51:33;;;;;;;;;;;15.50;96.30;15.70;99876.00;;;;420634;23;82427;-93
2022/05/07 00:51:46;;;;;;;;;;;15.50;96.30;15.70;99871.00;;;;424299;22;86882;-92
2022/05/07 00:51:58;;;;;;;;;;;15.40;96.30;15.70;99880.00;;;;422688;23;83430;-92
2022/05/07 00:52:09;;;;;;;;;;;15.50;96.30;15.70;99883.00;;;;422879;23;86416;-93
2022/05/07 00:52:26;;;;;;;;;;;15.50;96.30;15.70;99882.00;;;;418547;23;82586;-92
2022/05/07 00:52:54;;;;;;;;;;;;;;;;;;;;;
2022/05/07 00:54:31;;;;;;;;;;;15.50;96.30;15.70;99877.00;;;;419196;23;84133;-92
2022/05/07 00:54:42;;;;;;;;;;;15.40;96.40;15.70;99880.00;;;;418813;23;82472;-91
2022/05/07 00:54:54;;;;;;;;;;;15.50;96.40;15.70;99881.00;;;;420485;23;86882;-92
2022/05/07 00:55:12;;;;;;;;;;;15.40;96.40;15.70;99878.00;;;;420672;23;82510;-91
2022/05/07 00:55:24;;;;;;;;;;;15.40;96.60;15.60;99877.00;;;;418661;23;86482;-92
2022/05/07 00:55:36;;;;;;;;;;;15.40;96.30;15.60;99868.00;;;;419064;23;83408;-92
2022/05/07 00:55:48;;;;;;;;;;;15.40;96.40;15.70;99878.00;;;;420825;23;86422;-93
2022/05/07 00:56:00;;;;;;;;;;;15.40;96.40;15.60;99872.00;;;;421023;23;83303;-92
2022/05/07 00:56:12;;;;;;;;;;;15.40;96.30;15.60;99874.00;;;;420418;23;86505;-92
2022/05/07 00:56:24;;;;;;;;;;;15.40;96.30;15.60;99880.00;;;;418689;23;82480;-93
2022/05/07 00:56:38;;;;;;;;;;;15.40;96.30;15.70;99874.00;;;;418498;23;85953;-93
2022/05/07 00:56:50;;;;;;;;;;;15.40;96.40;15.70;99878.00;;;;422721;23;82518;-94
2022/05/07 00:57:06;;;;;;;;;;;15.40;96.50;15.60;99870.00;;;;416659;23;86932;-93
2022/05/07 00:57:18;;;;;;;;;;;15.40;96.50;15.60;99870.00;;;;420626;23;82587;-92
2022/05/07 00:57:33;;;;;;;;;;;15.40;96.50;15.70;99875.00;;;;418606;23;86548;-93
2022/05/07 00:57:52;;;;;;;;;;;15.40;96.50;15.60;99873.00;;;;420511;23;82325;-93
2022/05/07 00:58:05;;;;;;;;;;;15.40;96.40;15.60;99868.00;;;;420994;23;87323;-92
2022/05/07 00:58:18;;;;;;;;;;;15.40;96.40;15.60;99884.00;;;;421025;23;82498;-92
2022/05/07 00:58:31;;;;;;;;;;;15.40;96.40;15.60;99864.00;;;;418870;23;86601;-93
2022/05/07 00:58:43;;;;;;;;;;;15.40;96.40;15.60;99864.00;;;;420350;23;83531;-93
2022/05/07 00:59:01;;;;;;;;;;;15.40;96.40;15.60;99865.00;;;;418543;23;87716;-92
2022/05/07 00:59:18;;;;;;;;;;;15.40;96.50;15.60;99876.00;;;;422699;23;82396;-92
2022/05/07 00:59:30;;;;;;;;;;;15.40;96.80;15.70;99871.00;;;;420453;23;86694;-93
2022/05/07 00:59:42;;;;;;;;;;;15.40;96.50;15.70;99872.00;;;;417018;23;83351;-92
2022/05/07 00:59:54;;;;;;;;;;;15.40;96.50;15.60;99879.00;;;;418293;23;86050;-93
2022/05/07 01:00:07;;;;;;;;;;;15.40;96.50;15.60;99870.00;;;;418397;23;83441;-92
2022/05/07 01:00:19;;;;;;;;;;;15.40;96.50;15.70;99869.00;;;;418441;23;85795;-92
2022/05/07 01:00:31;;;;;;;;;;;15.40;96.50;15.60;99876.00;;;;416930;23;83437;-92
2022/05/07 01:00:43;;;;;;;;;;;15.40;96.50;15.60;99872.00;;;;421144;23;84013;-92
2022/05/07 01:00:55;;;;;;;;;;;15.40;96.50;15.70;99869.00;;;;420511;23;83396;-92
2022/05/07 01:01:07;;;;;;;;;;;15.40;96.50;15.60;99868.00;;;;420537;23;86649;-91
2022/05/07 01:01:20;;;;;;;;;;;15.40;96.60;15.70;99863.00;;;;418770;23;83315;-92
2022/05/07 01:01:32;;;;;;;;;;;15.40;96.60;15.70;99869.00;;;;421015;23;86554;-92
2022/05/07 01:01:44;;;;;;;;;;;15.40;96.60;15.70;99869.00;;;;418638;23;82508;-92
2022/05/07 01:01:56;;;;;;;;;;;15.40;96.50;15.70;99874.00;;;;418401;23;87005;-92
2022/05/07 01:02:08;;;;;;;;;;;15.40;96.50;15.70;99864.00;;;;418978;23;83458;-93
2022/05/07 01:02:22;;;;;;;;;;;15.40;96.50;15.60;99871.00;;;;422722;23;87025;-92
2022/05/07 01:02:35;;;;;;;;;;;15.40;96.40;15.60;99872.00;;;;422564;23;82531;-92
2022/05/07 01:02:49;;;;;;;;;;;15.40;96.40;15.70;99878.00;;;;424638;22;87822;-93
2022/05/07 01:03:02;;;;;;;;;;;15.40;96.50;15.60;99869.00;;;;422751;23;82562;-92
2022/05/07 01:03:14;;;;;;;;;;;15.40;96.50;15.60;99858.00;;;;420835;23;87915;-92
2022/05/07 01:03:26;;;;;;;;;;;15.40;96.40;15.60;99864.00;;;;421023;23;83475;-91
2022/05/07 01:03:38;;;;;;;;;;;15.40;96.50;15.60;99864.00;;;;418271;23;85815;-92
2022/05/07 01:03:50;;;;;;;;;;;15.40;96.50;15.60;99860.00;;;;418665;23;83402;-92
2022/05/07 01:04:02;;;;;;;;;;;15.40;96.50;15.70;99865.00;;;;418472;23;87822;-93
2022/05/07 01:04:14;;;;;;;;;;;15.40;96.50;15.60;99869.00;;;;422765;23;82513;-92
2022/05/07 01:04:26;;;;;;;;;;;15.40;96.50;15.70;99859.00;;;;418403;23;86899;-91
2022/05/07 01:04:38;;;;;;;;;;;15.40;96.50;15.60;99862.00;;;;421018;23;83391;-92
2022/05/07 01:04:50;;;;;;;;;;;15.40;96.60;15.70;99865.00;;;;416153;23;85367;-92
2022/05/07 01:05:04;;;;;;;;;;;15.40;96.50;15.70;99869.00;;;;422957;23;83426;-92
2022/05/07 01:05:16;;;;;;;;;;;15.40;96.50;15.70;99866.00;;;;418812;23;86523;-92
2022/05/07 01:05:28;;;;;;;;;;;15.40;96.50;15.70;99863.00;;;;417055;23;83455;-92
2022/05/07 01:05:40;;;;;;;;;;;15.40;96.50;15.70;99861.00;;;;422662;23;87320;-92
2022/05/07 01:05:53;;;;;;;;;;;15.40;96.50;15.70;99858.00;;;;420608;23;83763;-92
2022/05/07 01:06:05;;;;;;;;;;;15.40;96.50;15.70;99864.00;;;;420741;23;85935;-92
2022/05/07 01:06:17;;;;;;;;;;;15.40;96.50;15.60;99863.00;;;;421029;23;83413;-92
2022/05/07 01:06:30;;;;;;;;;;;15.40;96.50;15.60;99865.00;;;;418826;23;87012;-92
2022/05/07 01:06:42;;;;;;;;;;;15.40;96.50;15.60;99868.00;;;;418775;23;83299;-92
2022/05/07 01:06:56;;;;;;;;;;;15.40;96.50;15.60;99866.00;;;;416490;23;87308;-92
2022/05/07 01:07:08;;;;;;;;;;;15.40;96.50;15.60;99862.00;;;;416568;23;83398;-92
2022/05/07 01:07:20;;;;;;;;;;;15.40;96.50;15.60;99861.00;;;;418908;23;85373;-92
2022/05/07 01:07:34;;;;;;;;;;;15.40;96.50;15.60;99860.00;;;;420768;23;83325;-92
2022/05/07 01:07:46;;;;;;;;;;;15.40;96.60;15.60;99860.00;;;;418562;23;86222;-92
2022/05/07 01:07:58;;;;;;;;;;;15.40;96.50;15.60;99862.00;;;;418605;23;83412;-91
2022/05/07 01:08:12;;;;;;;;;;;15.40;96.60;15.60;99856.00;;;;420973;23;85846;-94
2022/05/07 01:08:28;;;;;;;;;;;15.40;96.60;15.60;99860.00;;;;422648;23;82478;-92
2022/05/07 01:08:40;;;;;;;;;;;15.40;96.50;15.60;99866.00;;;;420497;23;88941;-92
2022/05/07 01:08:52;;;;;;;;;;;15.40;96.60;15.60;99857.00;;;;419032;23;83712;-92
2022/05/07 01:09:06;;;;;;;;;;;15.40;96.60;15.60;99859.00;;;;418335;23;87003;-92
2022/05/07 01:09:18;;;;;;;;;;;15.40;96.60;15.60;99861.00;;;;417029;23;83403;-92
2022/05/07 01:09:31;;;;;;;;;;;15.40;96.60;15.60;99859.00;;;;420454;23;87747;-93
2022/05/07 01:09:49;;;;;;;;;;;15.40;96.60;15.60;99859.00;;;;420823;23;83420;-92
2022/05/07 01:10:01;;;;;;;;;;;15.40;96.60;15.60;99865.00;;;;424557;22;87627;-93
2022/05/07 01:10:13;;;;;;;;;;;15.40;96.60;15.60;99853.00;;;;420754;23;82500;-91
2022/05/07 01:10:26;;;;;;;;;;;15.40;96.60;15.60;99863.00;;;;420162;23;85439;-93
2022/05/07 01:10:38;;;;;;;;;;;15.40;96.60;15.60;99859.00;;;;422674;23;83486;-92
2022/05/07 01:10:51;;;;;;;;;;;15.40;96.60;15.60;99858.00;;;;418963;23;86059;-92
2022/05/07 01:11:03;;;;;;;;;;;15.40;96.60;15.50;99864.00;;;;423260;23;83267;-92
2022/05/07 01:11:25;;;;;;;;;;;15.40;96.50;15.60;99861.00;;;;420440;23;87050;-92
2022/05/07 01:11:41;;;;;;;;;;;15.40;96.50;15.60;99860.00;;;;418992;23;83488;-92
2022/05/07 01:11:53;;;;;;;;;;;15.40;96.60;15.60;99854.00;;;;418865;23;85758;-92
2022/05/07 01:12:05;;;;;;;;;;;15.40;96.60;15.50;99853.00;;;;420575;23;83190;-92
2022/05/07 01:12:17;;;;;;;;;;;15.30;96.60;15.60;99862.00;;;;420501;23;87937;-92
2022/05/07 01:12:31;;;;;;;;;;;15.30;96.60;15.60;99860.00;;;;418585;23;82480;-91
2022/05/07 01:12:44;;;;;;;;;;;15.40;96.60;15.60;99868.00;;;;418574;23;87664;-92
2022/05/07 01:12:56;;;;;;;;;;;15.40;96.70;15.60;99861.00;;;;420750;23;83346;-92
2022/05/07 01:13:08;;;;;;;;;;;15.40;96.70;15.60;99866.00;;;;418426;23;85745;-92
2022/05/07 01:13:21;;;;;;;;;;;15.40;96.60;15.60;99864.00;;;;420553;23;83483;-93
2022/05/07 01:13:34;;;;;;;;;;;15.40;96.60;15.60;99855.00;;;;422971;23;86626;-92
2022/05/07 01:13:47;;;;;;;;;;;15.40;96.60;15.60;99861.00;;;;424750;22;82527;-93
2022/05/07 01:13:59;;;;;;;;;;;15.40;96.60;15.60;99860.00;;;;422699;23;86477;-92
2022/05/07 01:14:11;;;;;;;;;;;15.40;96.60;15.60;99858.00;;;;418657;23;83393;-92
2022/05/07 01:14:23;;;;;;;;;;;15.30;96.60;15.60;99857.00;;;;422644;23;85744;-93
2022/05/07 01:14:35;;;;;;;;;;;15.40;96.60;15.60;99855.00;;;;420508;23;83457;-91
2022/05/07 01:14:50;;;;;;;;;;;15.30;96.60;15.60;99857.00;;;;421658;23;84490;-92
2022/05/07 01:15:02;;;;;;;;;;;15.30;96.60;15.60;99855.00;;;;424855;23;13337;-92
2022/05/07 01:15:14;;;;;;;;;;;15.30;96.60;15.60;99859.00;;;;420074;23;65507;-92
2022/05/07 01:15:26;;;;;;;;;;;15.40;96.60;15.60;99852.00;;;;423931;23;11287;-93
2022/05/07 01:15:48;;;;;;;;;;;15.40;96.60;15.60;99856.00;;;;429203;23;14677;-92
2022/05/07 01:16:00;;;;;;;;;;;15.40;96.80;15.60;99853.00;;;;428890;23;13792;-93
2022/05/07 01:16:12;;;;;;;;;;;15.40;96.60;15.50;99853.00;;;;419072;23;83546;-93
2022/05/07 01:16:24;;;;;;;;;;;15.30;96.50;15.50;99847.00;;;;423739;23;83157;-93
2022/05/07 01:16:36;;;;;;;;;;;15.40;96.60;15.60;99858.00;;;;419979;23;86719;-92
2022/05/07 01:16:48;;;;;;;;;;;15.30;96.50;15.60;99857.00;;;;422428;23;82494;-92
2022/05/07 01:17:00;;;;;;;;;;;15.40;96.60;15.50;99850.00;;;;426218;23;77956;-92
2022/05/07 01:17:13;;;;;;;;;;;15.30;96.60;15.50;99855.00;;;;425122;23;11786;-93
2022/05/07 01:17:25;;;;;;;;;;;15.30;96.60;15.50;99849.00;;;;423493;23;12770;-93
2022/05/07 01:17:38;;;;;;;;;;;15.30;96.60;15.50;99860.00;;;;425303;23;11800;-92
2022/05/07 01:17:50;;;;;;;;;;;15.30;96.60;15.50;99852.00;;;;420858;23;85479;-93
2022/05/07 01:18:03;;;;;;;;;;;15.30;96.60;15.50;99855.00;;;;423558;23;82460;-92
2022/05/07 01:18:15;;;;;;;;;;;15.30;96.60;15.50;99854.00;;;;421110;23;85905;-92
2022/05/07 01:18:30;;;;;;;;;;;15.30;96.60;15.50;99859.00;;;;421046;23;82625;-92
2022/05/07 01:18:42;;;;;;;;;;;15.30;96.90;15.50;99856.00;;;;423074;23;85667;-92
2022/05/07 01:18:54;;;;;;;;;;;15.30;96.60;15.50;99859.00;;;;421008;23;83437;-92
2022/05/07 01:19:07;;;;;;;;;;;15.30;96.70;15.60;99857.00;;;;423308;23;86658;-92
2022/05/07 01:19:18;;;;;;;;;;;15.30;96.60;15.60;99860.00;;;;419195;23;82532;-92
2022/05/07 01:19:30;;;;;;;;;;;15.30;96.60;15.60;99858.00;;;;425063;22;87294;-92
2022/05/07 01:19:45;;;;;;;;;;;15.30;96.70;15.60;99847.00;;;;423027;23;83458;-92
2022/05/07 01:19:57;;;;;;;;;;;15.30;96.70;15.60;99858.00;;;;423548;23;86882;-93
2022/05/07 01:20:12;;;;;;;;;;;15.30;96.70;15.60;99852.00;;;;421124;23;82379;-93
2022/05/07 01:20:25;;;;;;;;;;;15.30;96.60;15.50;99851.00;;;;418995;23;85663;-92
2022/05/07 01:20:39;;;;;;;;;;;15.30;96.60;15.50;99867.00;;;;423922;23;82174;-93
2022/05/07 01:20:53;;;;;;;;;;;15.30;96.70;15.60;99848.00;;;;427061;23;10770;-92
2022/05/07 01:21:12;;;;;;;;;;;15.30;96.60;15.50;99856.00;;;;423182;23;11045;-92
2022/05/07 01:21:24;;;;;;;;;;;15.30;96.60;15.50;99851.00;;;;429523;23;13291;-92
2022/05/07 01:21:36;;;;;;;;;;;15.30;96.70;15.50;99848.00;;;;430363;22;11808;-92
2022/05/07 01:21:48;;;;;;;;;;;15.30;96.60;15.50;99852.00;;;;424579;23;10810;-92
2022/05/07 01:22:01;;;;;;;;;;;15.30;96.60;15.60;99856.00;;;;428778;23;10953;-92
2022/05/07 01:22:13;;;;;;;;;;;15.30;96.70;15.60;99845.00;;;;425958;23;74017;-92
2022/05/07 01:22:26;;;;;;;;;;;15.30;96.60;15.60;99850.00;;;;423059;23;83309;-92
2022/05/07 01:22:38;;;;;;;;;;;15.30;96.60;15.60;99851.00;;;;422617;23;86846;-93
2022/05/07 01:22:50;;;;;;;;;;;15.30;96.60;15.50;99847.00;;;;422413;23;81831;-92
2022/05/07 01:23:03;;;;;;;;;;;15.30;96.60;15.50;99846.00;;;;420510;23;87334;-93
2022/05/07 01:23:15;;;;;;;;;;;15.30;96.70;15.50;99851.00;;;;418733;23;81153;-92
2022/05/07 01:23:28;;;;;;;;;;;15.30;96.60;15.50;99855.00;;;;416557;23;86572;-92
2022/05/07 01:23:41;;;;;;;;;;;15.30;96.70;15.50;99853.00;;;;420262;23;83482;-93
2022/05/07 01:23:55;;;;;;;;;;;15.30;96.60;15.50;99849.00;;;;418291;23;85844;-92
2022/05/07 01:24:07;;;;;;;;;;;15.30;96.60;15.50;99851.00;;;;422371;23;62800;-92
2022/05/07 01:24:19;;;;;;;;;;;15.30;96.60;15.50;99851.00;;;;416449;23;87196;-92
2022/05/07 01:24:34;;;;;;;;;;;15.30;96.60;15.50;99848.00;;;;420854;23;83435;-92
2022/05/07 01:24:46;;;;;;;;;;;15.30;96.70;15.50;99856.00;;;;424497;23;12701;-93
2022/05/07 01:24:58;;;;;;;;;;;15.30;96.70;15.50;99845.00;;;;426721;23;12029;-92
2022/05/07 01:25:13;;;;;;;;;;;15.30;96.70;15.40;99860.00;;;;424530;23;10936;-92
2022/05/07 01:25:25;;;;;;;;;;;15.30;96.70;15.50;99859.00;;;;422798;23;10957;-92
2022/05/07 01:25:40;;;;;;;;;;;15.30;96.70;15.50;99850.00;;;;427010;23;10836;-92
2022/05/07 01:26:01;;;;;;;;;;;15.30;96.70;15.50;99854.00;;;;419894;23;83469;-92
2022/05/07 01:26:21;;;;;;;;;;;15.30;96.70;15.50;99851.00;;;;422827;23;86667;-93
2022/05/07 01:26:36;;;;;;;;;;;15.30;96.70;15.40;99855.00;;;;421046;23;83315;-93
2022/05/07 01:26:48;;;;;;;;;;;15.20;96.70;15.50;99854.00;;;;424580;22;86831;-93
2022/05/07 01:27:00;;;;;;;;;;;15.30;96.70;15.50;99850.00;;;;418943;23;83434;-93
2022/05/07 01:27:12;;;;;;;;;;;15.30;96.70;15.50;99847.00;;;;420465;23;85582;-92
2022/05/07 01:27:24;;;;;;;;;;;15.30;96.80;15.40;99848.00;;;;425067;22;83209;-92
2022/05/07 01:27:36;;;;;;;;;;;15.20;96.70;15.50;99849.00;;;;418566;23;86389;-92
2022/05/07 01:27:49;;;;;;;;;;;15.30;96.80;15.50;99850.00;;;;419801;23;74494;-93
2022/05/07 01:28:01;;;;;;;;;;;15.30;96.70;15.40;99855.00;;;;424221;23;21926;-93
2022/05/07 01:28:13;;;;;;;;;;;15.20;96.70;15.40;99847.00;;;;428457;23;25336;-92
2022/05/07 01:28:25;;;;;;;;;;;15.20;96.70;15.50;99851.00;;;;424920;23;11088;-93
2022/05/07 01:28:38;;;;;;;;;;;15.30;96.70;15.40;99851.00;;;;426894;23;12024;-92
2022/05/07 01:28:51;;;;;;;;;;;15.20;96.70;15.40;99853.00;;;;426748;23;12818;-93
2022/05/07 01:29:03;;;;;;;;;;;15.20;96.70;15.40;99853.00;;;;424510;23;11881;-92
2022/05/07 01:29:15;;;;;;;;;;;15.20;96.70;15.50;99854.00;;;;426264;23;18489;-92
2022/05/07 01:29:27;;;;;;;;;;;15.20;96.80;15.50;99849.00;;;;424847;23;50116;-93
2022/05/07 01:29:44;;;;;;;;;;;15.20;96.80;15.40;99845.00;;;;427520;23;46822;-92
2022/05/07 01:29:59;;;;;;;;;;;15.20;96.80;15.40;99848.00;;;;426196;23;20848;-93
2022/05/07 01:30:14;;;;;;;;;;;15.20;96.80;15.40;99853.00;;;;421035;23;85701;-93
2022/05/07 01:30:35;;;;;;;;;;;15.20;96.80;15.40;99854.00;;;;420682;23;83346;-92
2022/05/07 01:30:54;;;;;;;;;;;15.20;96.80;15.50;99850.00;;;;420562;23;87326;-92
2022/05/07 01:31:06;;;;;;;;;;;15.20;96.80;15.50;99853.00;;;;418568;23;83396;-92
2022/05/07 01:31:20;;;;;;;;;;;15.20;96.80;15.40;99856.00;;;;422488;23;86688;-91
2022/05/07 01:31:34;;;;;;;;;;;15.20;96.80;15.40;99849.00;;;;421066;23;83326;-93
2022/05/07 01:31:46;;;;;;;;;;;15.20;96.80;15.40;99861.00;;;;422951;23;11019;-92
2022/05/07 01:32:01;;;;;;;;;;;15.20;96.90;15.40;99852.00;;;;426610;23;11051;-92
2022/05/07 01:32:13;;;;;;;;;;;15.20;96.80;15.50;99835.00;;;;425000;23;12697;-92
2022/05/07 01:32:27;;;;;;;;;;;15.20;96.90;15.40;99852.00;;;;429056;23;10977;-93
2022/05/07 01:32:39;;;;;;;;;;;15.20;96.80;15.40;99852.00;;;;426592;23;11314;-92
2022/05/07 01:32:53;;;;;;;;;;;15.20;96.80;15.40;99852.00;;;;418541;23;83361;-92
2022/05/07 01:33:05;;;;;;;;;;;15.20;96.80;15.40;99846.00;;;;418968;23;86044;-93
2022/05/07 01:33:20;;;;;;;;;;;15.20;96.90;15.40;99845.00;;;;416419;23;83462;-92
2022/05/07 01:33:33;;;;;;;;;;;15.20;97.00;15.40;99853.00;;;;415708;23;86858;-92
2022/05/07 01:33:48;;;;;;;;;;;15.20;96.90;15.40;99847.00;;;;422721;23;83284;-91
2022/05/07 01:34:00;;;;;;;;;;;15.20;96.90;15.40;99844.00;;;;429197;23;12802;-92
2022/05/07 01:34:12;;;;;;;;;;;15.20;97.00;15.50;99847.00;;;;424503;23;11904;-93
2022/05/07 01:34:27;;;;;;;;;;;15.20;96.90;15.40;99854.00;;;;426328;23;13522;-93
2022/05/07 01:34:41;;;;;;;;;;;15.20;96.90;15.50;99855.00;;;;424482;23;11062;-92
2022/05/07 01:34:53;;;;;;;;;;;15.20;96.90;15.40;99851.00;;;;427008;23;10861;-91
2022/05/07 01:35:08;;;;;;;;;;;15.20;96.90;15.40;99851.00;;;;429104;23;10941;-92
2022/05/07 01:35:20;;;;;;;;;;;15.20;97.00;15.40;99850.00;;;;424487;23;11284;-92
2022/05/07 01:35:32;;;;;;;;;;;15.20;97.00;15.50;99850.00;;;;426973;23;10954;-93
2022/05/07 01:35:44;;;;;;;;;;;15.20;97.00;15.40;99844.00;;;;429043;23;11078;-92
2022/05/07 01:36:01;;;;;;;;;;;15.20;97.20;15.40;99841.00;;;;426672;23;10964;-92
2022/05/07 01:36:17;;;;;;;;;;;15.20;96.90;15.50;99854.00;;;;428989;23;12768;-92
2022/05/07 01:36:30;;;;;;;;;;;15.20;97.20;15.40;99848.00;;;;426540;23;11784;-92
2022/05/07 01:36:43;;;;;;;;;;;15.20;96.90;15.40;99855.00;;;;422921;23;11144;-93
2022/05/07 01:36:55;;;;;;;;;;;15.20;96.90;15.50;99861.00;;;;424909;23;13036;-93
2022/05/07 01:37:09;;;;;;;;;;;15.20;96.90;15.50;99842.00;;;;426662;23;12838;-93
2022/05/07 01:37:22;;;;;;;;;;;15.20;97.00;15.40;99841.00;;;;424772;23;17232;-92
2022/05/07 01:37:36;;;;;;;;;;;15.20;96.90;15.50;99847.00;;;;429109;23;10855;-92
2022/05/07 01:37:51;;;;;;;;;;;15.20;96.90;15.40;99854.00;;;;424342;23;10962;-94
2022/05/07 01:38:05;;;;;;;;;;;15.20;97.00;15.40;99844.00;;;;424985;23;10858;-91
2022/05/07 01:38:32;;;;;;;;;;;15.20;96.90;15.50;99848.00;;;;426916;23;10944;-92
2022/05/07 01:38:44;;;;;;;;;;;15.20;96.90;15.40;99847.00;;;;426968;23;11053;-92
2022/05/07 01:38:56;;;;;;;;;;;15.20;96.90;15.40;99844.00;;;;424512;23;11058;-92
2022/05/07 01:39:10;;;;;;;;;;;15.20;96.90;15.40;99846.00;;;;428603;23;12659;-92
2022/05/07 01:39:22;;;;;;;;;;;15.20;97.00;15.40;99853.00;;;;431135;22;10922;-92
2022/05/07 01:39:36;;;;;;;;;;;15.20;97.00;15.40;99846.00;;;;424302;23;22090;-93
2022/05/07 01:39:48;;;;;;;;;;;15.20;97.00;15.40;99846.00;;;;430749;22;19669;-92
2022/05/07 01:40:01;;;;;;;;;;;15.20;96.90;15.40;99852.00;;;;429032;23;13682;-93
2022/05/07 01:40:19;;;;;;;;;;;15.20;97.00;15.40;99848.00;;;;424887;23;10946;-92
2022/05/07 01:40:33;;;;;;;;;;;15.20;97.00;15.40;99843.00;;;;426382;23;12737;-92
2022/05/07 01:40:45;;;;;;;;;;;15.20;96.90;15.40;99845.00;;;;430775;22;11011;-92
2022/05/07 01:40:59;;;;;;;;;;;15.20;97.00;15.40;99845.00;;;;427061;23;11085;-92
2022/05/07 01:41:11;;;;;;;;;;;15.20;96.90;15.40;99854.00;;;;421974;23;77170;-92
2022/05/07 01:41:23;;;;;;;;;;;15.20;96.90;15.40;99843.00;;;;426217;23;22532;-93
2022/05/07 01:41:34;;;;;;;;;;;15.20;97.00;15.50;99843.00;;;;424743;23;10977;-91
2022/05/07 01:41:50;;;;;;;;;;;15.20;97.00;15.40;99844.00;;;;420614;23;86924;-92
2022/05/07 01:42:02;;;;;;;;;;;15.20;97.00;15.40;99842.00;;;;422747;23;82531;-92
2022/05/07 01:42:14;;;;;;;;;;;15.20;96.90;15.50;99838.00;;;;416512;23;87005;-92
2022/05/07 01:42:28;;;;;;;;;;;15.20;96.90;15.50;99843.00;;;;420830;23;83391;-92
2022/05/07 01:42:40;;;;;;;;;;;15.20;96.90;15.40;99847.00;;;;422503;23;85896;-93
2022/05/07 01:42:54;;;;;;;;;;;15.20;96.90;15.50;99844.00;;;;419376;23;79304;-92
2022/05/07 01:43:08;;;;;;;;;;;15.20;97.00;15.40;99839.00;;;;416418;23;86889;-93
2022/05/07 01:43:20;;;;;;;;;;;15.20;96.90;15.50;99849.00;;;;420729;23;83403;-92
2022/05/07 01:43:32;;;;;;;;;;;15.20;96.90;15.40;99838.00;;;;418370;23;86579;-92
2022/05/07 01:43:46;;;;;;;;;;;15.20;96.90;15.40;99851.00;;;;418659;23;83369;-92
2022/05/07 01:44:08;;;;;;;;;;;15.20;97.00;15.40;99850.00;;;;420788;23;87040;-92
2022/05/07 01:44:22;;;;;;;;;;;15.20;97.00;15.50;99843.00;;;;418713;23;81224;-93
2022/05/07 01:44:36;;;;;;;;;;;15.20;96.90;15.50;99842.00;;;;422462;23;85009;-93
2022/05/07 01:44:48;;;;;;;;;;;15.20;97.00;15.50;99840.00;;;;424818;22;83402;-94
2022/05/07 01:45:08;;;;;;;;;;;15.20;97.00;15.50;99846.00;;;;422523;23;86922;-93
2022/05/07 01:45:31;;;;;;;;;;;15.20;97.00;15.40;99843.00;;;;417820;23;83488;-92
2022/05/07 01:45:43;;;;;;;;;;;15.20;97.00;15.40;99842.00;;;;422577;23;85606;-92
2022/05/07 01:45:57;;;;;;;;;;;15.20;96.90;15.40;99844.00;;;;418635;23;83486;-93
2022/05/07 01:48:13;;;;;;;;;;;15.20;97.00;15.40;99846.00;;;;421167;23;58868;-92
2022/05/07 01:48:25;;;;;;;;;;;15.20;97.00;15.40;99840.00;;;;422848;23;81571;-93
2022/05/07 01:48:37;;;;;;;;;;;15.20;97.00;15.50;99840.00;;;;420350;23;86010;-92
2022/05/07 01:48:52;;;;;;;;;;;15.20;97.00;15.40;99842.00;;;;418419;23;83493;-92
2022/05/07 01:49:04;;;;;;;;;;;15.20;97.00;15.40;99841.00;;;;422786;23;87392;-92
2022/05/07 01:49:16;;;;;;;;;;;15.20;97.00;15.40;99840.00;;;;421116;23;80788;-93
2022/05/07 01:49:28;;;;;;;;;;;15.20;97.00;15.30;99851.00;;;;420860;23;85779;-92
2022/05/07 01:49:40;;;;;;;;;;;15.20;97.00;15.40;99842.00;;;;422653;23;82419;-90
2022/05/07 01:49:52;;;;;;;;;;;15.20;97.00;15.40;99841.00;;;;420416;23;86929;-92
2022/05/07 01:50:05;;;;;;;;;;;15.10;97.00;15.40;99839.00;;;;421096;23;83394;-91
2022/05/07 01:50:17;;;;;;;;;;;15.20;97.00;15.40;99837.00;;;;420462;23;87713;-92
2022/05/07 01:50:29;;;;;;;;;;;15.20;97.00;15.40;99846.00;;;;418990;23;82484;-92
2022/05/07 01:50:45;;;;;;;;;;;15.20;97.10;15.40;99847.00;;;;420758;23;85465;-92
2022/05/07 01:50:59;;;;;;;;;;;15.20;97.10;15.40;99840.00;;;;418395;23;82455;-92
2022/05/07 01:51:11;;;;;;;;;;;15.20;97.10;15.40;99851.00;;;;418460;23;86706;-92
2022/05/07 01:51:23;;;;;;;;;;;15.20;97.10;15.40;99843.00;;;;417453;23;82522;-92
2022/05/07 01:51:37;;;;;;;;;;;15.10;97.00;15.30;99853.00;;;;420519;23;87412;-93
2022/05/07 01:51:49;;;;;;;;;;;15.20;97.10;15.40;99837.00;;;;423057;23;83304;-93
2022/05/07 01:52:01;;;;;;;;;;;15.20;97.00;15.40;99839.00;;;;422892;23;85880;-92
2022/05/07 01:52:14;;;;;;;;;;;15.10;97.00;15.30;99843.00;;;;423719;23;83277;-92
2022/05/07 01:52:26;;;;;;;;;;;15.10;97.00;15.30;99844.00;;;;418539;23;86119;-93
2022/05/07 01:52:37;;;;;;;;;;;15.10;97.00;15.40;99847.00;;;;418907;23;83363;-92
2022/05/07 01:52:49;;;;;;;;;;;15.10;97.00;15.30;99849.00;;;;420486;23;85899;-92
2022/05/07 01:53:01;;;;;;;;;;;15.10;97.10;15.30;99850.00;;;;421132;23;83373;-92
2022/05/07 01:53:14;;;;;;;;;;;15.10;97.10;15.30;99846.00;;;;422880;23;86578;-92
2022/05/07 01:53:26;;;;;;;;;;;15.10;97.10;15.30;99839.00;;;;420593;23;83414;-92
2022/05/07 01:53:41;;;;;;;;;;;15.10;97.10;15.30;99841.00;;;;420820;23;85585;-92
2022/05/07 01:53:55;;;;;;;;;;;15.10;97.10;15.30;99841.00;;;;420550;23;82560;-92
2022/05/07 01:54:08;;;;;;;;;;;15.10;97.10;15.30;99839.00;;;;418416;23;85406;-92
2022/05/07 01:54:22;;;;;;;;;;;15.10;97.10;15.30;99841.00;;;;418647;23;83369;-92
2022/05/07 01:54:34;;;;;;;;;;;15.10;97.10;15.30;99853.00;;;;420534;23;87871;-91
2022/05/07 01:54:46;;;;;;;;;;;15.10;97.10;15.30;99848.00;;;;418340;23;82603;-92
2022/05/07 01:54:58;;;;;;;;;;;15.10;97.10;15.30;99841.00;;;;420392;23;87409;-93
2022/05/07 01:55:12;;;;;;;;;;;15.10;97.40;15.30;99852.00;;;;420488;23;83558;-93
2022/05/07 01:55:25;;;;;;;;;;;15.10;97.20;15.40;99849.00;;;;418955;23;86238;-92
2022/05/07 01:55:37;;;;;;;;;;;15.10;97.20;15.30;99838.00;;;;420707;23;82497;-93
2022/05/07 01:55:49;;;;;;;;;;;15.10;97.20;15.40;99844.00;;;;416332;23;86944;-92
2022/05/07 01:56:06;;;;;;;;;;;15.10;97.20;15.30;99844.00;;;;418888;23;83372;-93
2022/05/07 01:56:20;;;;;;;;;;;15.10;97.10;15.30;99848.00;;;;420848;23;85821;-93
2022/05/07 01:56:34;;;;;;;;;;;15.10;97.10;15.30;99848.00;;;;422648;23;83447;-92
2022/05/07 01:56:46;;;;;;;;;;;15.10;97.10;15.30;99848.00;;;;422961;23;85933;-92
2022/05/07 01:56:58;;;;;;;;;;;15.10;97.10;15.30;99844.00;;;;418956;23;83298;-92
2022/05/07 01:57:10;;;;;;;;;;;15.10;97.10;15.30;99839.00;;;;416283;23;86382;-92
2022/05/07 01:57:22;;;;;;;;;;;15.10;97.10;15.30;99840.00;;;;418978;23;83373;-93
2022/05/07 01:57:38;;;;;;;;;;;15.10;97.10;15.30;99843.00;;;;418544;23;87540;-92
2022/05/07 01:57:50;;;;;;;;;;;15.10;97.10;15.30;99850.00;;;;420465;23;83459;-92
2022/05/07 01:58:02;;;;;;;;;;;15.10;97.10;15.30;99843.00;;;;419947;23;87836;-92
2022/05/07 01:58:14;;;;;;;;;;;15.10;97.10;15.20;99842.00;;;;418367;23;83475;-92
2022/05/07 01:58:26;;;;;;;;;;;15.10;97.20;15.20;99850.00;;;;418525;23;86688;-93
2022/05/07 01:58:38;;;;;;;;;;;15.10;97.20;15.30;99848.00;;;;424667;22;82541;-92
2022/05/07 01:58:50;;;;;;;;;;;15.10;97.20;15.30;99843.00;;;;420526;23;87623;-92
2022/05/07 01:59:02;;;;;;;;;;;15.10;97.20;15.30;99842.00;;;;422736;23;82492;-92
2022/05/07 01:59:14;;;;;;;;;;;15.10;97.20;15.30;99841.00;;;;422654;23;64266;-93
2022/05/07 01:59:28;;;;;;;;;;;15.00;97.30;15.30;99852.00;;;;426563;23;10975;-93
2022/05/07 01:59:43;;;;;;;;;;;15.10;97.20;15.30;99851.00;;;;423152;23;55174;-92
2022/05/07 01:59:55;;;;;;;;;;;15.00;97.20;15.30;99841.00;;;;424512;23;10926;-93
2022/05/07 02:00:10;;;;;;;;;;;15.10;97.30;15.30;99848.00;;;;424602;23;13035;-92
2022/05/07 02:00:22;;;;;;;;;;;15.10;97.20;15.30;99841.00;;;;424870;23;10906;-92